createdAt,value
2023-03-15T00:01:16.463Z,76.72
2023-03-15T00:03:43.528Z,76.88
2023-03-15T00:06:10.692Z,77.13
2023-03-15T00:08:37.602Z,77.44
2023-03-15T00:11:04.088Z,77.75
2023-03-15T00:13:31.052Z,77.63
2023-03-15T00:15:59.709Z,77.69
2023-03-15T00:18:27.314Z,77.77
2023-03-15T00:20:54.016Z,77.96
2023-03-15T00:23:20.516Z,77.56
2023-03-15T00:25:48.428Z,77.75
2023-03-15T00:28:15.212Z,77.78
2023-03-15T00:30:42.198Z,78.11
2023-03-15T00:33:09.387Z,78.07
2023-03-15T00:35:40.085Z,78.42
2023-03-15T00:38:07.617Z,78.53
2023-03-15T00:40:34.012Z,78.28
2023-03-15T00:43:00.418Z,78.18
2023-03-15T00:45:26.915Z,78.38
2023-03-15T00:47:55.016Z,78.27
2023-03-15T00:50:23.206Z,78.24
2023-03-15T00:52:49.934Z,78.52
2023-03-15T00:55:19.065Z,78.41
2023-03-15T00:57:46.553Z,78.41
2023-03-15T01:00:24.380Z,78.53
2023-03-15T01:02:52.886Z,79.05
2023-03-15T01:05:19.592Z,79.31
2023-03-15T01:07:46.113Z,79.61
2023-03-15T01:10:13.618Z,79.72
2023-03-15T01:12:40.792Z,80.04
2023-03-15T01:15:09.138Z,79.96
2023-03-15T01:17:35.667Z,80.02
2023-03-15T01:20:02.178Z,80.42
2023-03-15T01:22:28.680Z,80.35
2023-03-15T01:24:55.028Z,80.67
2023-03-15T01:27:21.720Z,81.04
2023-03-15T01:29:48.148Z,81.40
2023-03-15T01:32:14.684Z,81.56
2023-03-15T01:34:43.193Z,82.10
2023-03-15T01:37:14.305Z,82.57
2023-03-15T01:39:41.790Z,82.76
2023-03-15T01:42:09.474Z,83.00
2023-03-15T01:44:56.571Z,84.19
2023-03-15T01:47:26.015Z,84.99
2023-03-15T01:49:58.130Z,85.75
2023-03-15T01:52:30.361Z,86.39
2023-03-15T01:55:16.584Z,87.04
2023-03-15T01:57:56.063Z,88.24
2023-03-15T02:00:23.074Z,88.78
2023-03-15T02:02:56.102Z,89.02
2023-03-15T02:05:27.279Z,89.61
2023-03-15T02:07:55.045Z,90.52
2023-03-15T02:10:44.013Z,91.13
2023-03-15T02:13:14.030Z,91.52
2023-03-15T02:15:47.017Z,91.92
2023-03-15T02:18:14.453Z,93.00
2023-03-15T02:20:51.556Z,93.45
2023-03-15T02:23:20.718Z,94.02
2023-03-15T02:26:12.172Z,94.45
2023-03-15T02:28:39.289Z,94.80
2023-03-15T02:31:06.440Z,95.09
2023-03-15T02:33:41.882Z,95.59
2023-03-15T02:36:29.478Z,95.85
2023-03-15T02:38:56.934Z,96.38
2023-03-15T02:41:42.385Z,96.88
2023-03-15T02:44:13.999Z,97.01
2023-03-15T02:46:41.747Z,96.61
2023-03-15T02:49:08.796Z,96.59
2023-03-15T02:51:35.212Z,96.31
2023-03-15T02:54:01.599Z,96.23
2023-03-15T02:56:27.956Z,96.29
2023-03-15T02:58:54.375Z,96.29
2023-03-15T03:01:20.857Z,96.49
2023-03-15T03:03:47.785Z,96.66
2023-03-15T03:06:16.108Z,97.00
2023-03-15T03:08:47.266Z,97.10
2023-03-15T03:11:15.241Z,96.82
2023-03-15T03:13:42.831Z,97.21
2023-03-15T03:16:09.636Z,97.41
2023-03-15T03:18:36.226Z,97.32
2023-03-15T03:21:05.179Z,97.44
2023-03-15T03:23:33.927Z,97.35
2023-03-15T03:26:01.096Z,97.78
2023-03-15T03:28:30.560Z,97.91
2023-03-15T03:30:58.611Z,98.19
2023-03-15T03:33:25.341Z,98.20
2023-03-15T03:35:51.880Z,97.89
2023-03-15T03:38:18.281Z,97.79
2023-03-15T03:40:45.693Z,97.67
2023-03-15T03:43:12.081Z,97.99
2023-03-15T03:45:38.452Z,97.90
2023-03-15T03:48:05.228Z,98.02
2023-03-15T03:50:31.781Z,98.18
2023-03-15T03:52:58.177Z,98.01
2023-03-15T03:55:25.410Z,98.21
2023-03-15T03:57:53.060Z,98.54
2023-03-15T04:00:20.109Z,99.06
2023-03-15T04:02:46.539Z,99.25
2023-03-15T04:05:13.365Z,99.17
2023-03-15T04:07:40.056Z,99.44
2023-03-15T04:10:06.915Z,99.42
2023-03-15T04:12:33.373Z,99.49
2023-03-15T04:14:59.898Z,99.69
2023-03-15T04:17:26.426Z,99.61
2023-03-15T04:19:53.023Z,99.59
2023-03-15T04:22:19.489Z,99.57
2023-03-15T04:24:45.859Z,99.53
2023-03-15T04:27:15.198Z,99.78
2023-03-15T04:29:43.526Z,99.92
2023-03-15T04:32:10.644Z,99.98
2023-03-15T04:34:39.692Z,100.00
2023-03-15T04:37:06.633Z,100.00
2023-03-15T04:39:33.135Z,99.90
2023-03-15T04:41:59.593Z,100.00
2023-03-15T04:44:27.479Z,99.43
2023-03-15T04:46:55.112Z,99.54
2023-03-15T04:49:21.751Z,99.13
2023-03-15T04:51:48.132Z,99.46
2023-03-15T04:54:14.470Z,99.70
2023-03-15T04:56:42.218Z,99.31
2023-03-15T04:59:10.607Z,99.11
2023-03-15T05:28:28.283Z,100.00
2023-03-15T05:30:54.681Z,100.00
2023-03-15T05:33:21.390Z,100.00
2023-03-15T05:35:48.100Z,100.00
2023-03-15T05:38:14.808Z,100.00
2023-03-15T05:40:45.384Z,100.00
2023-03-15T05:43:12.811Z,100.00
2023-03-15T05:45:40.767Z,100.00
2023-03-15T05:48:07.350Z,100.00
2023-03-15T05:50:33.871Z,100.00
2023-03-15T05:53:00.446Z,100.00
2023-03-15T05:55:26.844Z,100.00
2023-03-15T05:57:53.280Z,100.00
2023-03-15T06:00:20.189Z,100.00
2023-03-15T06:02:46.613Z,100.00
2023-03-15T06:05:13.041Z,100.00
2023-03-15T06:07:39.483Z,100.00
2023-03-15T06:10:06.333Z,100.00
2023-03-15T06:12:32.772Z,100.00
2023-03-15T06:14:59.132Z,100.00
2023-03-15T06:17:25.478Z,100.00
2023-03-15T06:19:55.375Z,100.00
2023-03-15T06:22:21.758Z,100.00
2023-03-15T06:24:48.140Z,100.00
2023-03-15T06:27:14.600Z,100.00
2023-03-15T06:29:40.924Z,100.00
2023-03-15T06:32:07.651Z,100.00
2023-03-15T06:34:34.076Z,100.00
2023-03-15T06:37:01.052Z,100.00
2023-03-15T06:39:27.469Z,100.00
2023-03-15T06:41:54.037Z,100.00
2023-03-15T06:44:20.429Z,100.00
2023-03-15T06:46:46.815Z,100.00
2023-03-15T06:49:13.266Z,100.00
2023-03-15T06:51:39.902Z,100.00
2023-03-15T06:54:06.340Z,100.00
2023-03-15T06:56:37.089Z,100.00
2023-03-15T06:59:04.332Z,100.00
2023-03-15T07:01:30.815Z,100.00
2023-03-15T07:03:57.826Z,100.00
2023-03-15T07:06:24.232Z,100.00
2023-03-15T07:08:50.698Z,100.00
2023-03-15T07:11:17.106Z,100.00
2023-03-15T07:13:43.803Z,100.00
2023-03-15T07:16:10.232Z,100.00
2023-03-15T07:18:36.714Z,100.00
2023-03-15T07:21:05.286Z,100.00
2023-03-15T07:23:31.713Z,100.00
2023-03-15T07:25:58.114Z,100.00
2023-03-15T07:28:25.675Z,100.00
2023-03-15T07:31:03.943Z,100.00
2023-03-15T07:33:32.172Z,100.00
2023-03-15T07:36:01.388Z,100.00
2023-03-15T07:38:31.532Z,100.00
2023-03-15T07:41:01.065Z,100.00
2023-03-15T07:43:27.465Z,100.00
2023-03-15T07:45:53.869Z,100.00
2023-03-15T07:48:20.711Z,100.00
2023-03-15T07:50:47.405Z,100.00
2023-03-15T07:53:13.836Z,100.00
2023-03-15T07:55:40.346Z,100.00
2023-03-15T07:58:06.808Z,100.00
2023-03-15T08:00:33.427Z,100.00
2023-03-15T08:03:00.340Z,100.00
2023-03-15T08:05:29.032Z,100.00
2023-03-15T08:07:56.762Z,100.00
2023-03-15T08:10:23.318Z,100.00
2023-03-15T08:12:49.664Z,100.00
2023-03-15T08:15:16.426Z,100.00
2023-03-15T08:17:43.235Z,100.00
2023-03-15T08:20:11.598Z,100.00
2023-03-15T08:22:39.184Z,100.00
2023-03-15T08:25:06.447Z,100.00
2023-03-15T08:27:32.825Z,100.00
2023-03-15T08:29:59.482Z,100.00
2023-03-15T08:32:26.017Z,100.00
2023-03-15T08:34:53.261Z,100.00
2023-03-15T08:37:20.192Z,100.00
2023-03-15T08:39:47.083Z,100.00
2023-03-15T08:42:13.501Z,100.00
2023-03-15T08:44:40.029Z,100.00
2023-03-15T08:47:06.730Z,100.00
2023-03-15T08:49:33.518Z,100.00
2023-03-15T08:51:59.891Z,100.00
2023-03-15T08:54:27.400Z,100.00
2023-03-15T08:56:53.793Z,100.00
2023-03-15T08:59:31.481Z,99.94
2023-03-15T09:02:00.532Z,100.00
2023-03-15T09:04:27.458Z,99.86
2023-03-15T09:06:54.350Z,98.77
2023-03-15T09:09:20.783Z,97.50
2023-03-15T09:11:47.213Z,96.88
2023-03-15T09:14:13.573Z,96.05
2023-03-15T09:16:40.057Z,95.45
2023-03-15T09:19:06.548Z,96.31
2023-03-15T09:21:32.939Z,95.63
2023-03-15T09:23:59.324Z,95.25
2023-03-15T09:26:25.735Z,95.10
2023-03-15T09:28:52.105Z,94.93
2023-03-15T09:31:18.606Z,94.67
2023-03-15T09:33:48.234Z,93.84
2023-03-15T09:36:14.564Z,93.88
2023-03-15T09:38:43.689Z,93.78
2023-03-15T09:41:35.986Z,92.43
2023-03-15T09:44:44.532Z,92.10
2023-03-15T09:47:38.114Z,90.73
2023-03-15T09:50:13.147Z,89.89
2023-03-15T09:52:43.796Z,88.71
2023-03-15T09:55:16.434Z,88.60
2023-03-15T09:57:59.730Z,86.70
2023-03-15T10:00:36.335Z,85.22
2023-03-15T10:03:06.984Z,84.25
2023-03-15T10:05:45.717Z,83.78
2023-03-15T10:08:15.652Z,83.23
2023-03-15T10:11:05.156Z,83.09
2023-03-15T10:13:59.577Z,82.81
2023-03-15T10:16:41.622Z,82.20
2023-03-15T10:19:17.331Z,83.13
2023-03-15T10:21:58.263Z,83.47
2023-03-15T10:24:43.316Z,82.35
2023-03-15T10:27:35.262Z,81.82
2023-03-15T10:30:13.096Z,80.55
2023-03-15T10:32:43.395Z,79.92
2023-03-15T10:35:15.271Z,78.25
2023-03-15T10:37:42.649Z,76.58
2023-03-15T10:40:16.001Z,75.46
2023-03-15T10:42:44.725Z,74.44
2023-03-15T10:45:23.672Z,72.45
2023-03-15T10:47:59.561Z,72.33
2023-03-15T10:50:31.019Z,72.79
2023-03-15T10:52:59.323Z,72.87
2023-03-15T10:55:44.096Z,73.02
2023-03-15T10:58:30.970Z,73.49
2023-03-15T11:01:03.832Z,72.38
2023-03-15T11:03:31.230Z,72.14
2023-03-15T11:05:58.941Z,71.00
2023-03-15T11:08:37.635Z,71.65
2023-03-15T11:11:04.623Z,71.35
2023-03-15T11:13:36.492Z,71.19
2023-03-15T11:16:07.526Z,69.33
2023-03-15T11:19:01.541Z,69.80
2023-03-15T11:21:33.635Z,69.80
2023-03-15T11:24:03.127Z,69.71
2023-03-15T11:26:35.984Z,69.50
2023-03-15T11:29:20.798Z,70.37
2023-03-15T11:31:47.729Z,70.51
2023-03-15T11:34:25.330Z,70.99
2023-03-15T11:37:07.604Z,68.86
2023-03-15T11:39:53.729Z,68.92
2023-03-15T11:42:29.874Z,68.34
2023-03-15T11:45:01.722Z,68.30
2023-03-15T11:47:39.965Z,67.72
2023-03-15T11:50:06.821Z,68.00
2023-03-15T11:52:33.402Z,67.58
2023-03-15T11:55:03.549Z,67.26
2023-03-15T11:57:30.740Z,66.40
2023-03-15T12:00:15.256Z,66.78
2023-03-15T12:02:54.630Z,65.87
2023-03-15T12:05:58.772Z,65.16
2023-03-15T12:08:42.392Z,64.02
2023-03-15T12:11:33.916Z,64.03
2023-03-15T12:14:00.201Z,63.04
2023-03-15T12:16:30.783Z,63.50
2023-03-15T12:18:59.473Z,63.03
2023-03-15T12:21:35.260Z,62.73
2023-03-15T12:24:06.614Z,61.55
2023-03-15T12:26:42.086Z,61.44
2023-03-15T12:29:27.058Z,60.68
2023-03-15T12:32:02.727Z,59.15
2023-03-15T12:34:47.489Z,59.47
2023-03-15T12:37:22.359Z,59.13
2023-03-15T12:40:00.914Z,58.87
2023-03-15T12:42:31.142Z,57.22
2023-03-15T12:45:15.942Z,56.65
2023-03-15T12:47:51.461Z,56.29
2023-03-15T12:50:45.889Z,56.43
2023-03-15T12:53:30.614Z,55.40
2023-03-15T12:56:10.156Z,55.36
2023-03-15T12:58:38.918Z,56.11
2023-03-15T13:01:07.421Z,56.11
2023-03-15T13:03:35.789Z,56.38
2023-03-15T13:06:21.934Z,56.49
2023-03-15T13:08:57.923Z,56.32
2023-03-15T13:11:43.107Z,56.54
2023-03-15T13:14:47.054Z,55.95
2023-03-15T13:17:41.585Z,56.67
2023-03-15T13:20:23.256Z,56.03
2023-03-15T13:23:14.131Z,55.37
2023-03-15T13:26:09.098Z,53.70
2023-03-15T13:28:58.840Z,52.89
2023-03-15T13:31:28.853Z,52.19
2023-03-15T13:34:10.248Z,49.79
2023-03-15T13:36:47.909Z,47.10
2023-03-15T13:39:23.159Z,47.17
2023-03-15T13:41:56.708Z,45.59
2023-03-15T13:44:24.912Z,45.41
2023-03-15T13:46:52.948Z,44.31
2023-03-15T13:49:20.479Z,43.36
2023-03-15T13:51:49.179Z,43.21
2023-03-15T13:54:24.124Z,42.33
2023-03-15T13:56:58.758Z,41.71
2023-03-15T13:59:29.493Z,41.30
2023-03-15T14:01:56.771Z,41.24
2023-03-15T14:04:25.338Z,41.14
2023-03-15T14:07:08.407Z,41.25
2023-03-15T14:09:34.759Z,40.03
2023-03-15T14:12:19.774Z,39.72
2023-03-15T14:14:51.968Z,39.44
2023-03-15T14:17:26.398Z,39.88
2023-03-15T14:20:08.667Z,39.69
2023-03-15T14:22:36.134Z,40.03
2023-03-15T14:25:03.983Z,40.55
2023-03-15T14:27:31.027Z,41.18
2023-03-15T14:30:00.700Z,41.38
2023-03-15T14:32:35.835Z,41.08
2023-03-15T14:35:32.719Z,39.96
2023-03-15T14:38:08.614Z,39.05
2023-03-15T14:40:38.529Z,38.52
2023-03-15T14:43:07.479Z,37.81
2023-03-15T14:45:35.800Z,38.05
2023-03-15T14:48:14.540Z,37.13
2023-03-15T14:50:42.867Z,36.99
2023-03-15T14:53:17.303Z,36.95
2023-03-15T14:55:43.719Z,36.98
2023-03-15T14:58:15.935Z,37.31
2023-03-15T15:00:44.044Z,37.83
2023-03-15T15:03:25.905Z,37.25
2023-03-15T15:05:52.441Z,37.52
2023-03-15T15:08:22.048Z,37.78
2023-03-15T15:10:50.635Z,37.55
2023-03-15T15:13:28.966Z,36.85
2023-03-15T15:15:57.026Z,37.32
2023-03-15T15:18:25.823Z,37.38
2023-03-15T15:20:56.145Z,37.44
2023-03-15T15:23:41.894Z,37.69
2023-03-15T15:26:21.952Z,38.39
2023-03-15T15:28:49.881Z,38.68
2023-03-15T15:31:24.750Z,38.34
2023-03-15T15:33:52.577Z,38.80
2023-03-15T15:36:32.676Z,39.46
2023-03-15T15:39:06.090Z,38.78
2023-03-15T15:41:33.067Z,38.88
2023-03-15T15:43:59.877Z,39.43
2023-03-15T15:46:26.654Z,39.94
2023-03-15T15:48:53.379Z,40.04
2023-03-15T15:51:31.756Z,40.06
2023-03-15T15:54:00.676Z,40.61
2023-03-15T15:56:32.408Z,40.33
2023-03-15T15:59:00.837Z,40.80
2023-03-15T16:01:27.331Z,40.71
2023-03-15T16:03:53.704Z,40.33
2023-03-15T16:06:21.518Z,40.32
2023-03-15T16:08:50.632Z,40.53
2023-03-15T16:11:18.184Z,40.75
2023-03-15T16:13:45.868Z,40.82
2023-03-15T16:16:17.024Z,40.64
2023-03-15T16:18:44.541Z,40.52
2023-03-15T16:21:15.918Z,40.97
2023-03-15T16:23:43.907Z,41.13
2023-03-15T16:26:15.192Z,41.43
2023-03-15T16:28:41.795Z,41.14
2023-03-15T16:31:08.385Z,41.03
2023-03-15T16:33:34.965Z,41.17
2023-03-15T16:36:02.492Z,41.54
2023-03-15T16:38:32.131Z,41.38
2023-03-15T16:41:00.101Z,41.63
2023-03-15T16:43:26.527Z,41.26
2023-03-15T16:45:52.915Z,41.89
2023-03-15T16:48:19.326Z,42.12
2023-03-15T16:50:45.824Z,42.48
2023-03-15T16:53:13.179Z,42.13
2023-03-15T16:55:39.882Z,42.70
2023-03-15T16:58:18.317Z,43.17
2023-03-15T17:00:46.945Z,43.43
2023-03-15T17:03:13.818Z,43.54
2023-03-15T17:05:42.635Z,44.33
2023-03-15T17:08:13.638Z,44.91
2023-03-15T17:10:42.039Z,45.84
2023-03-15T17:13:11.500Z,46.75
2023-03-15T17:15:37.909Z,47.25
2023-03-15T17:18:13.452Z,47.67
2023-03-15T17:20:40.939Z,48.44
2023-03-15T17:23:07.627Z,49.41
2023-03-15T17:25:34.191Z,50.52
2023-03-15T17:28:01.088Z,50.82
2023-03-15T17:30:35.663Z,51.26
2023-03-15T17:33:02.654Z,51.68
2023-03-15T17:35:38.422Z,51.67
2023-03-15T17:38:07.360Z,52.35
2023-03-15T17:40:35.625Z,52.95
2023-03-15T17:43:03.553Z,53.04
2023-03-15T17:45:33.038Z,53.79
2023-03-15T17:48:00.781Z,54.11
2023-03-15T17:50:29.928Z,54.77
2023-03-15T17:52:58.806Z,55.09
2023-03-15T17:55:28.227Z,55.46
2023-03-15T17:57:55.796Z,55.79
2023-03-15T18:00:23.828Z,55.42
2023-03-15T18:02:55.700Z,55.72
2023-03-15T18:05:25.782Z,55.65
2023-03-15T18:07:58.740Z,55.77
2023-03-15T18:10:28.375Z,55.93
2023-03-15T18:12:54.820Z,56.37
2023-03-15T18:15:23.309Z,56.40
2023-03-15T18:17:50.717Z,56.94
2023-03-15T18:20:17.770Z,56.93
2023-03-15T18:22:44.513Z,57.17
2023-03-15T18:25:23.675Z,57.65
2023-03-15T18:27:51.141Z,57.69
2023-03-15T18:30:20.539Z,57.63
2023-03-15T18:32:47.156Z,58.17
2023-03-15T18:35:23.132Z,58.63
2023-03-15T18:37:49.755Z,58.68
2023-03-15T18:40:18.885Z,58.81
2023-03-15T18:42:45.624Z,59.19
2023-03-15T18:45:18.764Z,59.77
2023-03-15T18:47:45.798Z,60.04
2023-03-15T18:50:13.312Z,60.06
2023-03-15T18:52:40.840Z,59.84
2023-03-15T18:55:08.309Z,60.32
2023-03-15T18:57:41.108Z,60.60
2023-03-15T19:00:24.061Z,61.57
2023-03-15T19:02:51.011Z,61.68
2023-03-15T19:05:17.988Z,62.30
2023-03-15T19:07:46.065Z,62.03
2023-03-15T19:10:17.035Z,63.22
2023-03-15T19:12:46.374Z,64.25
2023-03-15T19:15:17.177Z,64.43
2023-03-15T19:17:45.567Z,65.00
2023-03-15T19:20:14.371Z,65.89
2023-03-15T19:22:41.471Z,66.23
2023-03-15T19:25:11.496Z,66.68
2023-03-15T19:27:38.110Z,66.83
2023-03-15T19:30:07.310Z,67.57
2023-03-15T19:32:35.273Z,67.68
2023-03-15T19:35:01.934Z,67.59
2023-03-15T19:37:28.345Z,68.10
2023-03-15T19:39:54.826Z,68.58
2023-03-15T19:42:21.195Z,68.22
2023-03-15T19:44:48.381Z,68.48
2023-03-15T19:47:14.758Z,68.34
2023-03-15T19:49:41.218Z,68.41
2023-03-15T19:52:07.613Z,68.52
2023-03-15T19:54:34.166Z,68.00
2023-03-15T19:57:00.872Z,68.62
2023-03-15T19:59:27.529Z,68.47
2023-03-15T20:01:53.954Z,68.65
2023-03-15T20:04:20.423Z,68.87
2023-03-15T20:06:46.917Z,68.69
2023-03-15T20:09:13.519Z,68.74
2023-03-15T20:11:39.916Z,68.65
2023-03-15T20:14:06.328Z,68.43
2023-03-15T20:16:32.849Z,68.35
2023-03-15T20:18:59.310Z,68.38
2023-03-15T20:21:25.698Z,68.43
2023-03-15T20:23:52.061Z,68.62
2023-03-15T20:26:18.607Z,68.71
2023-03-15T20:28:46.955Z,68.71
2023-03-15T20:31:16.124Z,68.39
2023-03-15T20:33:43.853Z,67.99
2023-03-15T20:36:11.168Z,68.31
2023-03-15T20:38:38.015Z,68.82
2023-03-15T20:41:06.168Z,68.78
2023-03-15T20:43:33.067Z,68.93
2023-03-15T20:46:01.109Z,68.85
2023-03-15T20:48:29.071Z,68.83
2023-03-15T20:50:57.906Z,68.92
2023-03-15T20:53:25.759Z,69.16
2023-03-15T20:55:52.270Z,69.41
2023-03-15T20:58:18.732Z,69.81
2023-03-15T21:00:45.432Z,70.17
2023-03-15T21:03:13.257Z,70.19
2023-03-15T21:05:45.969Z,69.80
2023-03-15T21:08:13.902Z,70.04
2023-03-15T21:10:40.432Z,69.56
2023-03-15T21:13:10.056Z,69.71
2023-03-15T21:15:49.250Z,69.65
2023-03-15T21:18:17.499Z,69.56
2023-03-15T21:20:44.133Z,69.57
2023-03-15T21:23:11.170Z,69.70
2023-03-15T21:25:37.882Z,69.65
2023-03-15T21:28:04.637Z,69.59
2023-03-15T21:30:31.339Z,69.78
2023-03-15T21:32:57.806Z,69.66
2023-03-15T21:35:25.442Z,69.41
2023-03-15T21:37:51.908Z,69.82
2023-03-15T21:40:18.321Z,70.34
2023-03-15T21:42:47.461Z,70.63
2023-03-15T21:45:13.901Z,70.47
2023-03-15T21:47:40.397Z,70.49
2023-03-15T21:50:07.439Z,70.27
2023-03-15T21:52:33.793Z,70.01
2023-03-15T21:55:01.073Z,70.11
2023-03-15T21:57:27.745Z,70.17
2023-03-15T21:59:54.143Z,70.32
2023-03-15T22:02:20.570Z,70.20
2023-03-15T22:04:47.031Z,70.34
2023-03-15T22:07:13.453Z,70.38
2023-03-15T22:09:41.256Z,70.25
2023-03-15T22:12:08.481Z,70.07
2023-03-15T22:14:34.946Z,70.09
2023-03-15T22:17:04.907Z,70.28
2023-03-15T22:19:31.970Z,70.38
2023-03-15T22:21:58.636Z,70.49
2023-03-15T22:24:25.145Z,70.36
2023-03-15T22:26:52.953Z,70.38
2023-03-15T22:29:19.485Z,70.44
2023-03-15T22:31:45.904Z,70.71
2023-03-15T22:34:12.257Z,71.01
2023-03-15T22:36:38.666Z,70.97
2023-03-15T22:39:04.993Z,71.09
2023-03-15T22:41:31.442Z,71.24
2023-03-15T22:43:57.817Z,71.14
2023-03-15T22:46:24.324Z,71.29
2023-03-15T22:48:50.703Z,71.57
2023-03-15T22:51:17.347Z,71.18
2023-03-15T22:53:44.311Z,71.21
2023-03-15T22:56:11.156Z,71.38
2023-03-15T22:58:38.226Z,71.15
2023-03-15T23:01:04.875Z,71.32
2023-03-15T23:03:31.426Z,70.91
2023-03-15T23:05:57.800Z,70.85
2023-03-15T23:08:24.594Z,70.65
2023-03-15T23:10:51.335Z,70.76
2023-03-15T23:13:17.936Z,70.80
2023-03-15T23:15:44.513Z,70.77
2023-03-15T23:18:11.134Z,70.77
2023-03-15T23:20:37.620Z,70.86
2023-03-15T23:23:04.056Z,71.03
2023-03-15T23:25:30.530Z,71.14
2023-03-15T23:27:57.171Z,70.99
2023-03-15T23:30:23.727Z,71.20
2023-03-15T23:32:52.284Z,70.88
2023-03-15T23:35:18.791Z,71.30
2023-03-15T23:37:45.204Z,71.51
2023-03-15T23:40:14.185Z,71.36
2023-03-15T23:42:41.990Z,71.31
2023-03-15T23:45:09.532Z,71.21
2023-03-15T23:47:35.957Z,71.33
2023-03-15T23:50:02.467Z,71.03
2023-03-15T23:52:29.239Z,70.98
2023-03-15T23:54:55.606Z,71.09
2023-03-15T23:57:22.211Z,71.22
2023-03-15T23:59:48.823Z,71.63
